createdAt,value
2022-10-22T00:00:58.784Z,953.69
2022-10-22T00:03:59.198Z,953.75
2022-10-22T00:06:58.885Z,953.66
2022-10-22T00:09:59.263Z,953.69
2022-10-22T00:12:59.238Z,953.68
2022-10-22T00:15:58.603Z,953.69
2022-10-22T00:18:58.710Z,953.68
2022-10-22T00:21:58.729Z,953.75
2022-10-22T00:24:58.575Z,953.89
2022-10-22T00:27:58.915Z,953.95
2022-10-22T00:30:59.333Z,953.81
2022-10-22T00:33:58.303Z,953.82
2022-10-22T00:36:59.224Z,953.75
2022-10-22T00:39:59.714Z,953.74
2022-10-22T00:42:58.204Z,953.65
2022-10-22T00:45:59.104Z,953.78
2022-10-22T00:48:58.949Z,953.71
2022-10-22T00:51:59.292Z,953.75
2022-10-22T00:54:58.939Z,953.71
2022-10-22T00:57:58.996Z,953.72
2022-10-22T01:01:00.000Z,953.61
2022-10-22T01:03:58.555Z,953.65
2022-10-22T01:06:58.319Z,953.52
2022-10-22T01:09:58.743Z,953.64
2022-10-22T01:12:58.674Z,953.57
2022-10-22T01:15:58.783Z,953.44
2022-10-22T01:18:58.560Z,953.24
2022-10-22T01:21:59.326Z,953.28
2022-10-22T01:24:58.418Z,953.26
2022-10-22T01:27:58.408Z,953.13
2022-10-22T01:30:58.505Z,953.23
2022-10-22T01:33:59.589Z,953.28
2022-10-22T01:36:59.437Z,953.33
2022-10-22T01:39:59.221Z,953.25
2022-10-22T01:42:58.677Z,953.35
2022-10-22T01:46:00.263Z,953.42
2022-10-22T01:48:59.660Z,953.42
2022-10-22T01:51:59.445Z,953.34
2022-10-22T01:54:59.055Z,953.47
2022-10-22T01:58:00.697Z,953.57
2022-10-22T02:00:59.694Z,953.67
2022-10-22T02:04:00.168Z,953.78
2022-10-22T02:06:58.550Z,953.73
2022-10-22T02:09:59.055Z,953.61
2022-10-22T02:12:58.946Z,953.47
2022-10-22T02:16:00.038Z,953.41
2022-10-22T02:18:59.621Z,953.34
2022-10-22T02:21:58.923Z,953.37
2022-10-22T02:24:59.965Z,953.21
2022-10-22T02:27:59.045Z,953.11
2022-10-22T02:30:59.694Z,953.01
2022-10-22T02:33:59.832Z,952.95
2022-10-22T02:36:59.589Z,952.99
2022-10-22T02:39:59.574Z,953.1
2022-10-22T02:42:59.449Z,953.05
2022-10-22T02:45:58.614Z,953.14
2022-10-22T02:48:59.576Z,953.21
2022-10-22T02:51:59.206Z,953.43
2022-10-22T02:54:58.321Z,953.52
2022-10-22T02:57:59.530Z,953.5
2022-10-22T03:00:59.831Z,953.49
2022-10-22T03:03:59.060Z,953.49
2022-10-22T03:06:58.390Z,953.59
2022-10-22T03:10:00.096Z,953.72
2022-10-22T03:12:59.130Z,953.79
2022-10-22T03:15:59.399Z,953.89
2022-10-22T03:18:59.069Z,954.04
2022-10-22T03:21:58.850Z,954.07
2022-10-22T03:24:59.050Z,954.31
2022-10-22T03:27:58.955Z,954.15
2022-10-22T03:30:59.369Z,954.1
2022-10-22T03:33:59.009Z,954.2
2022-10-22T03:36:59.663Z,954.13
2022-10-22T03:39:58.731Z,954.16
2022-10-22T03:42:58.885Z,954.22
2022-10-22T03:45:58.856Z,954.11
2022-10-22T03:48:59.619Z,953.98
2022-10-22T03:51:58.919Z,954.0
2022-10-22T03:54:59.241Z,954.06
2022-10-22T03:57:59.630Z,954.06
2022-10-22T04:00:59.537Z,954.11
2022-10-22T04:03:58.955Z,954.04
2022-10-22T04:06:58.882Z,954.01
2022-10-22T04:09:59.969Z,954.04
2022-10-22T04:12:59.065Z,954.07
2022-10-22T04:16:00.034Z,954.06
2022-10-22T04:18:59.201Z,954.17
2022-10-22T04:21:59.072Z,954.19
2022-10-22T04:24:59.332Z,954.29
2022-10-22T04:27:58.984Z,954.24
2022-10-22T04:30:59.969Z,954.2
2022-10-22T04:33:58.906Z,954.19
2022-10-22T04:36:59.635Z,954.14
2022-10-22T04:39:59.136Z,954.1
2022-10-22T04:42:59.702Z,954.04
2022-10-22T04:46:00.216Z,954.0
2022-10-22T04:48:58.967Z,953.99
2022-10-22T04:51:59.739Z,953.89
2022-10-22T04:54:58.895Z,953.96
2022-10-22T04:57:58.750Z,954.03
2022-10-22T05:01:00.258Z,954.26
2022-10-22T05:03:59.809Z,954.1
2022-10-22T05:06:59.442Z,954.15
2022-10-22T05:09:59.329Z,954.26
2022-10-22T05:12:59.759Z,954.37
2022-10-22T05:15:59.085Z,954.31
2022-10-22T05:18:59.292Z,954.28
2022-10-22T05:21:59.139Z,954.23
2022-10-22T05:24:59.270Z,954.25
2022-10-22T05:28:00.291Z,954.32
2022-10-22T05:31:00.035Z,954.41
2022-10-22T05:33:59.060Z,954.5
2022-10-22T05:36:59.537Z,954.63
2022-10-22T05:40:12.396Z,954.84
2022-10-22T05:42:59.062Z,954.81
2022-10-22T05:46:00.994Z,954.81
2022-10-22T05:48:59.067Z,954.81
2022-10-22T05:51:59.675Z,954.88
2022-10-22T05:54:59.528Z,954.87
2022-10-22T05:57:59.170Z,954.94
2022-10-22T06:00:59.655Z,955.04
2022-10-22T06:03:58.515Z,955.03
2022-10-22T06:06:59.625Z,955.08
2022-10-22T06:09:59.640Z,955.16
2022-10-22T06:12:59.341Z,955.06
2022-10-22T06:15:59.190Z,955.16
2022-10-22T06:18:59.546Z,955.25
2022-10-22T06:22:00.131Z,955.25
2022-10-22T06:24:59.846Z,955.25
2022-10-22T06:28:00.086Z,955.42
2022-10-22T06:30:59.872Z,955.51
2022-10-22T06:33:58.904Z,955.55
2022-10-22T06:36:59.365Z,955.57
2022-10-22T06:39:59.403Z,955.61
2022-10-22T06:43:00.174Z,955.67
2022-10-22T06:45:58.820Z,955.75
2022-10-22T06:49:00.186Z,955.7
2022-10-22T06:51:59.719Z,955.85
2022-10-22T06:54:59.329Z,955.88
2022-10-22T06:57:58.984Z,955.86
2022-10-22T07:00:59.876Z,956.03
2022-10-22T07:03:59.970Z,956.12
2022-10-22T07:06:59.898Z,956.04
2022-10-22T07:09:59.199Z,956.09
2022-10-22T07:12:59.960Z,956.18
2022-10-22T07:15:59.102Z,956.16
2022-10-22T07:18:59.684Z,956.25
2022-10-22T07:21:59.333Z,956.26
2022-10-22T07:25:00.002Z,956.32
2022-10-22T07:27:58.990Z,956.32
2022-10-22T07:30:59.674Z,956.39
2022-10-22T07:33:59.465Z,956.23
2022-10-22T07:36:58.490Z,956.23
2022-10-22T07:40:02.986Z,956.29
2022-10-22T07:42:58.872Z,956.22
2022-10-22T07:45:58.817Z,956.33
2022-10-22T07:48:58.363Z,956.38
2022-10-22T07:51:59.269Z,956.4
2022-10-22T07:54:59.245Z,956.36
2022-10-22T07:57:58.982Z,956.39
2022-10-22T08:00:59.793Z,956.47
2022-10-22T08:03:59.108Z,956.43
2022-10-22T08:06:59.029Z,956.45
2022-10-22T08:09:58.819Z,956.52
2022-10-22T08:12:58.825Z,956.52
2022-10-22T08:15:59.929Z,956.59
2022-10-22T08:18:58.922Z,956.69
2022-10-22T08:21:58.827Z,956.59
2022-10-22T08:24:58.956Z,956.58
2022-10-22T08:27:59.448Z,956.55
2022-10-22T08:30:59.955Z,956.68
2022-10-22T08:34:00.242Z,956.62
2022-10-22T08:36:59.461Z,956.68
2022-10-22T08:39:59.639Z,956.63
2022-10-22T08:42:59.493Z,956.63
2022-10-22T08:45:59.349Z,956.55
2022-10-22T08:48:58.737Z,956.56
2022-10-22T08:51:59.451Z,956.62
2022-10-22T08:54:59.431Z,956.62
2022-10-22T08:57:58.885Z,956.7
2022-10-22T09:01:00.937Z,956.7
2022-10-22T09:03:59.404Z,956.76
2022-10-22T09:06:59.915Z,956.73
2022-10-22T09:09:58.789Z,956.88
2022-10-22T09:12:59.320Z,956.96
2022-10-22T09:15:59.302Z,956.85
2022-10-22T09:18:59.195Z,956.9
2022-10-22T09:21:59.631Z,957.02
2022-10-22T09:24:58.874Z,956.98
2022-10-22T09:28:00.465Z,956.89
2022-10-22T09:30:59.342Z,956.99
2022-10-22T09:33:59.223Z,956.98
2022-10-22T09:36:59.344Z,956.83
2022-10-22T09:39:59.037Z,956.89
2022-10-22T09:42:59.050Z,957.05
2022-10-22T09:45:59.716Z,956.97
2022-10-22T09:48:58.990Z,957.01
2022-10-22T09:51:59.596Z,957.16
2022-10-22T09:54:58.690Z,957.03
2022-10-22T09:57:58.711Z,957.01
2022-10-22T10:00:59.004Z,957.16
2022-10-22T10:03:58.613Z,957.23
2022-10-22T10:06:58.606Z,957.08
2022-10-22T10:10:00.010Z,957.14
2022-10-22T10:12:59.223Z,957.19
2022-10-22T10:15:59.344Z,957.17
2022-10-22T10:18:59.635Z,957.11
2022-10-22T10:22:00.132Z,957.26
2022-10-22T10:24:58.380Z,957.23
2022-10-22T10:27:58.302Z,957.18
2022-10-22T10:31:00.944Z,957.2
2022-10-22T10:33:59.120Z,957.24
2022-10-22T10:36:59.411Z,957.34
2022-10-22T10:39:59.159Z,957.29
2022-10-22T10:42:58.915Z,957.28
2022-10-22T10:45:59.298Z,957.23
2022-10-22T10:48:59.170Z,957.37
2022-10-22T10:51:59.872Z,957.39
2022-10-22T10:54:59.092Z,957.27
2022-10-22T10:57:58.752Z,957.35
2022-10-22T11:00:59.829Z,957.34
2022-10-22T11:04:17.601Z,957.35
2022-10-22T11:07:10.855Z,957.31
2022-10-22T11:09:59.035Z,957.31
2022-10-22T11:12:59.501Z,957.27
2022-10-22T11:15:59.222Z,957.28
2022-10-22T11:18:58.641Z,957.35
2022-10-22T11:21:58.927Z,957.25
2022-10-22T11:24:58.852Z,957.38
2022-10-22T11:28:05.465Z,957.31
2022-10-22T11:30:59.658Z,957.35
2022-10-22T11:34:04.813Z,957.32
2022-10-22T11:36:58.326Z,957.34
2022-10-22T11:39:58.662Z,957.31
2022-10-22T11:42:59.214Z,957.38
2022-10-22T11:45:59.615Z,957.29
2022-10-22T11:48:59.487Z,957.3
2022-10-22T11:52:03.014Z,957.33
2022-10-22T11:54:58.638Z,957.29
2022-10-22T11:57:59.107Z,957.33
2022-10-22T12:00:59.187Z,957.42
2022-10-22T12:03:59.450Z,957.3
2022-10-22T12:06:59.671Z,957.42
2022-10-22T12:09:59.373Z,957.32
2022-10-22T12:12:59.499Z,957.3
2022-10-22T12:15:59.458Z,957.32
2022-10-22T12:18:59.673Z,957.32
2022-10-22T12:21:59.600Z,957.23
2022-10-22T12:24:59.647Z,957.21
2022-10-22T12:27:59.310Z,957.25
2022-10-22T12:30:59.625Z,957.29
2022-10-22T12:33:58.798Z,957.29
2022-10-22T12:36:58.653Z,957.2
2022-10-22T12:39:59.569Z,957.14
2022-10-22T12:42:59.465Z,957.2
2022-10-22T12:45:59.742Z,957.28
2022-10-22T12:48:59.208Z,957.3
2022-10-22T12:51:59.342Z,957.28
2022-10-22T12:54:58.483Z,957.27
2022-10-22T12:57:59.018Z,957.25
2022-10-22T13:00:59.049Z,957.27
2022-10-22T13:03:59.031Z,957.14
2022-10-22T13:06:59.507Z,957.27
2022-10-22T13:09:59.416Z,957.3
2022-10-22T13:12:59.808Z,957.28
2022-10-22T13:15:59.656Z,957.31
2022-10-22T13:18:59.272Z,957.17
2022-10-22T13:21:59.039Z,957.16
2022-10-22T13:24:59.548Z,957.21
2022-10-22T13:27:59.030Z,957.17
2022-10-22T13:30:58.781Z,957.21
2022-10-22T13:34:01.388Z,957.26
2022-10-22T13:36:59.265Z,957.18
2022-10-22T13:39:59.718Z,957.24
2022-10-22T13:42:59.310Z,957.23
2022-10-22T13:45:59.126Z,957.25
2022-10-22T13:48:59.433Z,957.26
2022-10-22T13:51:59.341Z,957.22
2022-10-22T13:54:58.639Z,957.28
2022-10-22T13:58:00.056Z,957.31
2022-10-22T14:01:00.260Z,957.29
2022-10-22T14:03:59.266Z,957.31
2022-10-22T14:07:01.338Z,957.32
2022-10-22T14:09:59.759Z,957.37
2022-10-22T14:12:59.548Z,957.3
2022-10-22T14:15:59.239Z,957.42
2022-10-22T14:18:59.617Z,957.33
2022-10-22T14:21:59.518Z,957.34
2022-10-22T14:24:59.258Z,957.33
2022-10-22T14:27:59.331Z,957.28
2022-10-22T14:30:59.671Z,957.24
2022-10-22T14:33:59.767Z,957.28
2022-10-22T14:36:59.756Z,957.34
2022-10-22T14:39:59.767Z,957.36
2022-10-22T14:43:00.233Z,957.34
2022-10-22T14:45:59.383Z,957.34
2022-10-22T14:48:59.556Z,957.37
2022-10-22T14:52:00.292Z,957.31
2022-10-22T14:54:59.281Z,957.34
2022-10-22T14:57:59.031Z,957.36
2022-10-22T15:00:59.356Z,957.36
2022-10-22T15:03:59.193Z,957.31
2022-10-22T15:06:59.266Z,957.38
2022-10-22T15:09:59.582Z,957.36
2022-10-22T15:12:59.176Z,957.27
2022-10-22T15:15:59.822Z,957.31
2022-10-22T15:18:59.862Z,957.37
2022-10-22T15:21:59.916Z,957.33
2022-10-22T15:24:59.306Z,957.3
2022-10-22T15:28:06.096Z,957.33
2022-10-22T15:30:59.857Z,957.37
2022-10-22T15:34:01.837Z,957.42
2022-10-22T15:36:59.302Z,957.32
2022-10-22T15:39:59.162Z,957.39
2022-10-22T15:42:58.885Z,957.36
2022-10-22T15:45:59.348Z,957.42
2022-10-22T15:48:59.231Z,957.41
2022-10-22T15:51:59.652Z,957.44
2022-10-22T15:54:59.279Z,957.47
2022-10-22T15:58:01.926Z,957.5
2022-10-22T16:00:58.780Z,957.51
2022-10-22T16:03:59.518Z,957.54
2022-10-22T16:06:59.623Z,957.56
2022-10-22T16:09:59.982Z,957.63
2022-10-22T16:12:59.963Z,957.66
2022-10-22T16:15:59.074Z,957.57
2022-10-22T16:18:58.418Z,957.63
2022-10-22T16:21:59.485Z,957.68
2022-10-22T16:24:59.256Z,957.65
2022-10-22T16:27:59.287Z,957.62
2022-10-22T16:30:59.328Z,957.52
2022-10-22T16:33:59.380Z,957.67
2022-10-22T16:36:58.902Z,957.67
2022-10-22T16:40:00.990Z,957.67
2022-10-22T16:42:59.707Z,957.82
2022-10-22T16:45:59.807Z,957.77
2022-10-22T16:48:59.431Z,957.79
2022-10-22T16:51:59.068Z,957.76
2022-10-22T16:54:59.416Z,957.78
2022-10-22T16:57:58.921Z,957.73
2022-10-22T17:00:59.134Z,957.85
2022-10-22T17:03:59.960Z,957.77
2022-10-22T17:06:59.546Z,957.78
2022-10-22T17:09:58.676Z,957.84
2022-10-22T17:12:59.597Z,957.9
2022-10-22T17:15:59.602Z,957.91
2022-10-22T17:18:59.090Z,958.01
2022-10-22T17:21:59.123Z,958.03
2022-10-22T17:24:59.415Z,958.01
2022-10-22T17:27:59.519Z,958.06
2022-10-22T17:30:59.891Z,958.06
2022-10-22T17:33:59.665Z,958.15
2022-10-22T17:36:59.716Z,958.16
2022-10-22T17:39:59.356Z,958.18
2022-10-22T17:42:59.222Z,958.26
2022-10-22T17:46:00.605Z,958.18
2022-10-22T17:48:59.139Z,958.09
2022-10-22T17:54:59.042Z,958.07
2022-10-22T17:57:59.318Z,958.26
2022-10-22T18:01:26.327Z,957.98
2022-10-22T18:03:58.888Z,957.99
2022-10-22T18:06:59.734Z,958.12
2022-10-22T18:09:58.851Z,958.04
2022-10-22T18:12:59.232Z,958.1
2022-10-22T18:16:00.783Z,958.13
2022-10-22T18:18:58.781Z,958.19
2022-10-22T18:21:58.922Z,958.19
2022-10-22T18:24:59.078Z,958.3
2022-10-22T18:27:59.836Z,958.24
2022-10-22T18:31:00.329Z,958.2
2022-10-22T18:33:59.572Z,958.2
2022-10-22T18:36:58.582Z,958.16
2022-10-22T18:39:59.493Z,958.27
2022-10-22T18:42:58.825Z,958.23
2022-10-22T18:46:00.007Z,958.31
2022-10-22T18:48:59.288Z,958.2
2022-10-22T18:51:59.168Z,958.23
2022-10-22T18:54:58.638Z,958.21
2022-10-22T18:57:59.235Z,958.3
2022-10-22T19:00:59.700Z,958.23
2022-10-22T19:03:58.909Z,958.13
2022-10-22T19:06:59.092Z,958.17
2022-10-22T19:09:59.945Z,958.29
2022-10-22T19:12:58.845Z,958.22
2022-10-22T19:15:59.382Z,958.13
2022-10-22T19:18:59.202Z,958.13
2022-10-22T19:21:58.642Z,958.09
2022-10-22T19:24:58.909Z,958.07
2022-10-22T19:27:59.062Z,958.16
2022-10-22T19:30:58.629Z,958.11
2022-10-22T19:33:59.114Z,958.03
2022-10-22T19:36:59.477Z,958.06
2022-10-22T19:39:59.594Z,958.13
2022-10-22T19:42:58.531Z,958.14
2022-10-22T19:45:59.462Z,958.09
2022-10-22T19:48:58.429Z,958.19
2022-10-22T19:51:59.687Z,958.17
2022-10-22T19:54:59.379Z,958.14
2022-10-22T19:57:58.424Z,958.17
2022-10-22T20:00:59.181Z,958.22
2022-10-22T20:03:58.866Z,958.17
2022-10-22T20:06:59.359Z,958.28
2022-10-22T20:09:59.343Z,958.23
2022-10-22T20:12:59.399Z,958.29
2022-10-22T20:16:00.186Z,958.23
2022-10-22T20:18:58.633Z,958.19
2022-10-22T20:24:59.328Z,958.2
2022-10-22T20:27:59.456Z,958.2
2022-10-22T20:30:58.919Z,958.19
2022-10-22T20:33:59.224Z,958.09
2022-10-22T20:36:58.664Z,958.06
2022-10-22T20:39:59.067Z,958.07
2022-10-22T20:42:58.720Z,958.16
2022-10-22T20:45:59.180Z,958.23
2022-10-22T20:48:58.854Z,958.1
2022-10-22T20:51:58.880Z,958.13
2022-10-22T20:54:58.546Z,958.23
2022-10-22T20:57:59.542Z,958.18
2022-10-22T21:00:59.434Z,958.23
2022-10-22T21:03:58.502Z,958.15
2022-10-22T21:06:59.436Z,958.1
2022-10-22T21:09:59.627Z,958.1
2022-10-22T21:12:58.693Z,958.19
2022-10-22T21:15:58.799Z,958.16
2022-10-22T21:18:58.774Z,958.15
2022-10-22T21:21:59.352Z,958.18
2022-10-22T21:24:59.124Z,958.18
2022-10-22T21:27:59.049Z,958.25
2022-10-22T21:30:59.267Z,958.29
2022-10-22T21:33:58.916Z,958.25
2022-10-22T21:36:58.842Z,958.32
2022-10-22T21:39:59.518Z,958.28
2022-10-22T21:42:58.811Z,958.18
2022-10-22T21:46:00.910Z,958.15
2022-10-22T21:48:58.599Z,958.19
2022-10-22T21:51:59.323Z,958.12
2022-10-22T21:54:58.662Z,958.03
2022-10-22T21:57:58.649Z,958.09
2022-10-22T22:00:59.688Z,958.07
2022-10-22T22:03:58.768Z,958.12
2022-10-22T22:06:58.524Z,958.05
2022-10-22T22:09:59.472Z,958.13
2022-10-22T22:12:58.692Z,958.12
2022-10-22T22:15:58.424Z,958.02
2022-10-22T22:18:59.287Z,958.12
2022-10-22T22:21:59.424Z,958.02
2022-10-22T22:24:58.677Z,957.99
2022-10-22T22:27:58.930Z,958.06
2022-10-22T22:30:58.808Z,958.0
2022-10-22T22:33:58.988Z,958.0
2022-10-22T22:36:59.086Z,957.9
2022-10-22T22:39:59.557Z,957.84
2022-10-22T22:42:58.421Z,957.76
2022-10-22T22:45:58.714Z,957.74
2022-10-22T22:48:58.938Z,957.7
2022-10-22T22:51:58.896Z,957.74
2022-10-22T22:54:58.864Z,957.75
2022-10-22T22:57:58.810Z,957.76
2022-10-22T23:00:59.932Z,957.8
2022-10-22T23:03:58.738Z,957.8
2022-10-22T23:06:58.690Z,957.77
2022-10-22T23:09:58.620Z,957.86
2022-10-22T23:12:58.410Z,957.85
2022-10-22T23:15:58.564Z,957.87
2022-10-22T23:18:58.560Z,957.95
2022-10-22T23:21:58.763Z,957.89
2022-10-22T23:24:59.379Z,957.77
2022-10-22T23:27:59.349Z,957.76
2022-10-22T23:30:59.323Z,957.75
2022-10-22T23:33:58.814Z,957.74
2022-10-22T23:36:58.794Z,957.75
2022-10-22T23:39:59.362Z,957.74
2022-10-22T23:42:58.237Z,957.7
2022-10-22T23:45:59.012Z,957.65
2022-10-22T23:48:59.023Z,957.62
2022-10-22T23:51:59.136Z,957.41
2022-10-22T23:54:58.011Z,957.48
2022-10-22T23:57:58.967Z,957.44
